createdAt,value
2023-02-24T00:00:32.560Z,7.82
2023-02-24T00:03:37.718Z,7.84
2023-02-24T00:06:43.719Z,7.85
2023-02-24T00:09:46.657Z,7.93
2023-02-24T00:12:49.483Z,7.94
2023-02-24T00:16:01.035Z,8.04
2023-02-24T00:19:07.519Z,8.03
2023-02-24T00:22:10.156Z,8.07
2023-02-24T00:25:12.652Z,8.06
2023-02-24T00:28:15.177Z,8.06
2023-02-24T00:31:20.482Z,8.08
2023-02-24T00:34:23.949Z,8.02
2023-02-24T00:37:26.547Z,7.99
2023-02-24T00:40:30.462Z,8.05
2023-02-24T00:43:37.429Z,7.98
2023-02-24T00:46:45.071Z,7.98
2023-02-24T00:49:48.323Z,7.94
2023-02-24T00:52:50.928Z,7.96
2023-02-24T00:56:00.549Z,7.91
2023-02-24T00:59:03.984Z,7.89
2023-02-24T01:02:08.404Z,7.87
2023-02-24T01:05:12.202Z,7.85
2023-02-24T01:08:21.515Z,7.82
2023-02-24T01:11:51.528Z,7.79
2023-02-24T01:14:54.113Z,7.78
2023-02-24T01:17:56.744Z,7.91
2023-02-24T01:20:59.390Z,7.89
2023-02-24T01:24:02.005Z,7.88
2023-02-24T01:27:05.634Z,7.88
2023-02-24T01:30:16.088Z,7.87
2023-02-24T01:33:19.036Z,7.83
2023-02-24T01:36:25.808Z,7.85
2023-02-24T01:39:30.275Z,7.84
2023-02-24T01:42:32.975Z,7.84
2023-02-24T01:45:40.189Z,7.81
2023-02-24T01:48:42.737Z,7.86
2023-02-24T01:51:59.196Z,7.80
2023-02-24T01:55:16.643Z,7.79
2023-02-24T01:58:26.781Z,7.77
2023-02-24T02:01:40.499Z,7.71
2023-02-24T02:05:16.112Z,7.72
2023-02-24T02:08:21.579Z,7.70
2023-02-24T02:11:24.276Z,7.77
2023-02-24T02:14:29.504Z,7.79
2023-02-24T02:17:41.033Z,7.76
2023-02-24T02:21:09.385Z,7.78
2023-02-24T02:24:52.353Z,7.72
2023-02-24T02:28:26.773Z,7.66
2023-02-24T02:31:56.945Z,7.65
2023-02-24T02:35:24.890Z,7.64
2023-02-24T02:38:57.591Z,7.60
2023-02-24T02:42:27.680Z,7.58
2023-02-24T02:45:41.169Z,7.61
2023-02-24T02:48:58.209Z,7.56
2023-02-24T02:52:10.544Z,7.61
2023-02-24T02:55:23.931Z,7.63
2023-02-24T02:58:31.934Z,7.57
2023-02-24T03:01:39.226Z,7.54
2023-02-24T03:04:51.304Z,7.52
2023-02-24T03:07:56.932Z,7.55
2023-02-24T03:11:03.031Z,7.51
2023-02-24T03:14:07.817Z,7.50
2023-02-24T03:17:21.559Z,7.48
2023-02-24T03:20:33.015Z,7.40
2023-02-24T03:23:40.172Z,7.46
2023-02-24T03:26:54.123Z,7.46
2023-02-24T03:30:07.561Z,7.56
2023-02-24T03:33:18.127Z,7.53
2023-02-24T03:36:21.013Z,7.46
2023-02-24T03:39:24.509Z,7.44
2023-02-24T03:43:06.099Z,7.36
2023-02-24T03:46:09.084Z,7.33
2023-02-24T03:49:14.233Z,7.27
2023-02-24T03:52:29.266Z,7.21
2023-02-24T03:55:54.887Z,7.21
2023-02-24T03:59:25.310Z,7.26
2023-02-24T04:02:33.103Z,7.34
2023-02-24T04:05:47.723Z,7.40
2023-02-24T04:09:01.519Z,7.34
2023-02-24T04:12:13.908Z,7.31
2023-02-24T04:15:29.713Z,7.25
2023-02-24T04:18:33.415Z,7.24
2023-02-24T04:21:38.217Z,7.23
2023-02-24T04:24:44.542Z,7.25
2023-02-24T04:27:48.155Z,7.31
2023-02-24T04:30:58.962Z,7.33
2023-02-24T04:34:02.003Z,7.30
2023-02-24T04:37:11.517Z,7.28
2023-02-24T04:40:18.384Z,7.29
2023-02-24T04:43:21.008Z,7.26
2023-02-24T04:46:23.649Z,7.27
2023-02-24T04:49:26.847Z,7.20
2023-02-24T04:52:29.308Z,7.16
2023-02-24T04:55:33.431Z,7.11
2023-02-24T04:58:38.194Z,7.11
2023-02-24T05:01:44.339Z,7.04
2023-02-24T05:04:49.766Z,7.04
2023-02-24T05:07:57.312Z,7.00
2023-02-24T05:11:04.063Z,7.00
2023-02-24T05:14:07.939Z,6.97
2023-02-24T05:17:12.887Z,6.96
2023-02-24T05:20:34.016Z,6.95
2023-02-24T05:23:40.114Z,6.90
2023-02-24T05:26:42.848Z,6.88
2023-02-24T05:29:45.518Z,6.84
2023-02-24T05:32:48.096Z,6.83
2023-02-24T05:35:53.930Z,6.82
2023-02-24T05:39:07.939Z,6.83
2023-02-24T05:42:11.715Z,6.87
2023-02-24T05:45:14.329Z,6.84
2023-02-24T05:48:17.015Z,6.93
2023-02-24T05:51:19.807Z,6.93
2023-02-24T05:54:31.477Z,6.93
2023-02-24T05:57:35.793Z,6.91
2023-02-24T06:00:39.886Z,6.86
2023-02-24T06:03:48.102Z,6.83
2023-02-24T06:06:52.594Z,6.83
2023-02-24T06:09:57.859Z,6.83
2023-02-24T06:13:02.385Z,6.85
2023-02-24T06:16:06.896Z,6.89
2023-02-24T06:19:12.289Z,6.92
2023-02-24T06:22:17.100Z,6.98
2023-02-24T06:25:21.258Z,7.05
2023-02-24T06:28:25.172Z,7.04
2023-02-24T06:31:28.304Z,7.14
2023-02-24T06:34:31.524Z,7.18
2023-02-24T06:37:35.944Z,7.21
2023-02-24T06:40:38.738Z,7.24
2023-02-24T06:43:43.547Z,7.27
2023-02-24T06:46:46.379Z,7.40
2023-02-24T06:49:53.679Z,7.34
2023-02-24T06:53:00.929Z,7.27
2023-02-24T06:56:15.198Z,7.33
2023-02-24T06:59:28.526Z,7.43
2023-02-24T07:02:40.715Z,7.41
2023-02-24T07:05:50.443Z,7.42
2023-02-24T07:08:53.500Z,7.44
2023-02-24T07:11:57.012Z,7.43
2023-02-24T07:15:05.396Z,7.54
2023-02-24T07:18:15.245Z,7.66
2023-02-24T07:21:23.549Z,7.81
2023-02-24T07:24:37.617Z,7.89
2023-02-24T07:27:40.593Z,8.02
2023-02-24T07:31:26.773Z,8.03
2023-02-24T07:34:33.891Z,8.01
2023-02-24T07:37:36.819Z,8.12
2023-02-24T07:40:54.776Z,8.15
2023-02-24T07:44:00.172Z,8.19
2023-02-24T07:47:08.088Z,8.34
2023-02-24T07:50:14.949Z,8.31
2023-02-24T07:53:19.091Z,8.35
2023-02-24T07:56:27.087Z,8.36
2023-02-24T07:59:37.716Z,8.52
2023-02-24T08:02:40.431Z,8.68
2023-02-24T08:05:43.730Z,8.76
2023-02-24T08:08:59.053Z,8.71
2023-02-24T08:12:01.684Z,8.76
2023-02-24T08:15:17.314Z,8.73
2023-02-24T08:18:21.511Z,8.87
2023-02-24T08:21:27.578Z,9.08
2023-02-24T08:24:30.435Z,9.10
2023-02-24T08:27:39.173Z,9.10
2023-02-24T08:30:46.163Z,9.03
2023-02-24T08:33:48.977Z,8.82
2023-02-24T08:36:55.974Z,8.78
2023-02-24T08:39:58.914Z,8.78
2023-02-24T08:43:31.233Z,8.70
2023-02-24T08:46:38.002Z,8.65
2023-02-24T08:49:41.440Z,8.72
2023-02-24T08:52:48.193Z,8.82
2023-02-24T08:55:52.106Z,8.95
2023-02-24T08:59:07.273Z,9.02
2023-02-24T09:02:19.477Z,9.09
2023-02-24T09:05:29.799Z,9.11
2023-02-24T09:08:42.789Z,9.16
2023-02-24T09:11:57.200Z,9.31
2023-02-24T09:15:07.710Z,9.34
2023-02-24T09:18:14.595Z,9.52
2023-02-24T09:21:36.527Z,9.72
2023-02-24T09:24:40.184Z,9.73
2023-02-24T09:28:09.438Z,9.95
2023-02-24T09:31:17.457Z,10.12
2023-02-24T09:34:30.159Z,10.51
2023-02-24T09:37:34.279Z,10.83
2023-02-24T09:40:40.399Z,11.13
2023-02-24T09:43:44.554Z,11.31
2023-02-24T09:46:54.531Z,11.53
2023-02-24T09:50:14.335Z,11.52
2023-02-24T09:53:20.112Z,11.65
2023-02-24T09:56:29.134Z,11.86
2023-02-24T10:00:01.670Z,12.17
2023-02-24T10:03:44.136Z,12.28
2023-02-24T10:06:58.016Z,12.22
2023-02-24T10:10:25.976Z,12.35
2023-02-24T10:13:32.871Z,12.41
2023-02-24T10:16:43.530Z,12.43
2023-02-24T10:19:56.548Z,12.33
2023-02-24T10:23:09.852Z,12.42
2023-02-24T10:26:33.205Z,12.44
2023-02-24T10:30:05.164Z,12.34
2023-02-24T10:33:20.820Z,12.58
2023-02-24T10:36:35.773Z,12.98
2023-02-24T10:39:43.734Z,13.26
2023-02-24T10:42:48.983Z,13.02
2023-02-24T10:46:06.427Z,13.06
2023-02-24T10:49:14.692Z,13.02
2023-02-24T10:52:37.164Z,12.90
2023-02-24T10:55:47.519Z,12.98
2023-02-24T10:59:23.251Z,12.87
2023-02-24T11:02:30.266Z,12.79
2023-02-24T11:06:06.485Z,12.87
2023-02-24T11:09:30.281Z,13.00
2023-02-24T11:12:55.619Z,13.33
2023-02-24T11:16:21.861Z,13.28
2023-02-24T11:19:29.969Z,13.31
2023-02-24T11:22:39.760Z,13.37
2023-02-24T11:25:47.186Z,13.17
2023-02-24T11:29:17.641Z,13.15
2023-02-24T11:32:55.047Z,13.23
2023-02-24T11:36:05.357Z,13.18
2023-02-24T11:39:35.219Z,13.29
2023-02-24T11:42:46.296Z,13.41
2023-02-24T11:46:11.888Z,13.52
2023-02-24T11:49:37.368Z,13.73
2023-02-24T11:52:47.186Z,14.13
2023-02-24T11:55:59.228Z,14.43
2023-02-24T11:59:30.246Z,14.88
2023-02-24T12:02:52.006Z,14.74
2023-02-24T12:05:58.742Z,14.55
2023-02-24T12:09:15.631Z,14.74
2023-02-24T12:12:32.556Z,14.86
2023-02-24T12:16:03.149Z,14.86
2023-02-24T12:19:31.876Z,15.02
2023-02-24T12:22:51.683Z,14.97
2023-02-24T12:26:31.708Z,15.25
2023-02-24T12:29:58.303Z,15.21
2023-02-24T12:33:31.744Z,15.21
2023-02-24T12:36:44.280Z,15.33
2023-02-24T12:40:23.507Z,15.29
2023-02-24T12:43:52.503Z,15.25
2023-02-24T12:47:12.529Z,15.18
2023-02-24T12:50:43.505Z,15.15
2023-02-24T12:54:19.971Z,15.76
2023-02-24T12:57:25.493Z,15.53
2023-02-24T13:00:49.224Z,15.64
2023-02-24T13:03:55.450Z,15.94
2023-02-24T13:07:31.852Z,15.71
2023-02-24T13:10:44.098Z,15.63
2023-02-24T13:13:59.392Z,15.49
2023-02-24T13:17:10.871Z,15.78
2023-02-24T13:20:15.201Z,16.02
2023-02-24T13:23:22.169Z,15.83
2023-02-24T13:26:26.131Z,15.45
2023-02-24T13:29:28.678Z,15.40
2023-02-24T13:32:35.040Z,15.39
2023-02-24T13:35:38.779Z,15.38
2023-02-24T13:38:46.804Z,15.07
2023-02-24T13:41:50.001Z,14.79
2023-02-24T13:45:17.605Z,14.91
2023-02-24T13:48:54.206Z,15.17
2023-02-24T13:52:04.253Z,15.62
2023-02-24T13:55:24.266Z,16.48
2023-02-24T13:58:54.360Z,16.32
2023-02-24T14:02:03.769Z,16.16
2023-02-24T14:05:16.727Z,16.41
2023-02-24T14:08:25.824Z,16.48
2023-02-24T14:11:35.815Z,16.56
2023-02-24T14:14:39.839Z,16.59
2023-02-24T14:17:42.550Z,16.53
2023-02-24T14:20:45.398Z,15.74
2023-02-24T14:24:09.856Z,15.39
2023-02-24T14:27:26.504Z,14.82
2023-02-24T14:30:33.614Z,14.88
2023-02-24T14:33:38.909Z,14.57
2023-02-24T14:36:45.175Z,14.54
2023-02-24T14:39:57.062Z,14.48
2023-02-24T14:43:00.362Z,14.44
2023-02-24T14:46:06.301Z,14.30
2023-02-24T14:49:19.262Z,14.13
2023-02-24T14:52:30.768Z,14.11
2023-02-24T14:55:37.775Z,14.10
2023-02-24T14:58:48.814Z,14.12
2023-02-24T15:01:55.733Z,14.01
2023-02-24T15:04:59.612Z,14.05
2023-02-24T15:08:04.047Z,13.96
2023-02-24T15:11:19.582Z,13.92
2023-02-24T15:14:31.894Z,13.90
2023-02-24T15:17:40.376Z,13.82
2023-02-24T15:20:43.239Z,13.76
2023-02-24T15:23:47.612Z,13.62
2023-02-24T15:27:14.789Z,13.50
2023-02-24T15:30:34.607Z,13.49
2023-02-24T15:33:40.445Z,13.45
2023-02-24T15:36:43.211Z,13.45
2023-02-24T15:39:46.066Z,13.33
2023-02-24T15:42:57.844Z,13.27
2023-02-24T15:46:00.797Z,13.16
2023-02-24T15:49:05.223Z,13.11
2023-02-24T15:52:10.845Z,13.10
2023-02-24T15:55:18.155Z,13.07
2023-02-24T15:58:22.548Z,13.02
2023-02-24T16:01:26.316Z,13.00
2023-02-24T16:04:29.083Z,12.96
2023-02-24T16:07:37.064Z,12.87
2023-02-24T16:10:40.992Z,12.80
2023-02-24T16:13:48.740Z,12.78
2023-02-24T16:16:51.701Z,12.70
2023-02-24T16:19:57.153Z,12.63
2023-02-24T16:23:04.020Z,12.60
2023-02-24T16:26:13.446Z,12.46
2023-02-24T16:29:17.951Z,12.38
2023-02-24T16:32:23.888Z,12.30
2023-02-24T16:35:28.304Z,12.29
2023-02-24T16:38:31.268Z,12.21
2023-02-24T16:41:33.914Z,12.11
2023-02-24T16:44:37.146Z,12.06
2023-02-24T16:47:40.269Z,11.95
2023-02-24T16:50:44.244Z,11.89
2023-02-24T16:53:49.504Z,11.72
2023-02-24T16:56:54.357Z,11.67
2023-02-24T16:59:57.001Z,11.58
2023-02-24T17:03:25.006Z,11.50
2023-02-24T17:06:30.332Z,11.39
2023-02-24T17:09:33.771Z,11.30
2023-02-24T17:12:36.464Z,11.20
2023-02-24T17:15:44.338Z,11.09
2023-02-24T17:18:47.499Z,11.06
2023-02-24T17:21:49.999Z,11.02
2023-02-24T17:24:52.633Z,10.99
2023-02-24T17:27:57.350Z,10.95
2023-02-24T17:31:00.404Z,10.90
2023-02-24T17:34:06.345Z,10.93
2023-02-24T17:37:10.167Z,10.89
2023-02-24T17:40:15.359Z,10.91
2023-02-24T17:43:19.239Z,10.86
2023-02-24T17:46:22.656Z,10.89
2023-02-24T17:49:25.369Z,10.90
2023-02-24T17:52:29.661Z,11.01
2023-02-24T17:55:32.602Z,11.25
2023-02-24T17:58:36.024Z,11.40
2023-02-24T18:01:39.176Z,11.54
2023-02-24T18:04:42.396Z,11.58
2023-02-24T18:07:45.056Z,11.63
2023-02-24T18:10:47.958Z,11.75
2023-02-24T18:13:52.814Z,11.94
2023-02-24T18:16:56.770Z,11.91
2023-02-24T18:19:59.686Z,11.90
2023-02-24T18:23:02.397Z,11.79
2023-02-24T18:26:07.344Z,11.65
2023-02-24T18:29:11.543Z,11.45
2023-02-24T18:32:14.618Z,11.25
2023-02-24T18:35:22.268Z,11.04
2023-02-24T18:38:25.387Z,10.83
2023-02-24T18:41:28.710Z,10.73
2023-02-24T18:44:31.627Z,10.58
2023-02-24T18:47:34.399Z,10.47
2023-02-24T18:50:37.208Z,10.32
2023-02-24T18:53:40.992Z,10.21
2023-02-24T18:56:43.920Z,10.12
2023-02-24T18:59:51.058Z,10.00
2023-02-24T19:02:54.088Z,9.89
2023-02-24T19:05:57.730Z,9.88
2023-02-24T19:09:09.802Z,9.91
2023-02-24T19:12:12.810Z,9.86
2023-02-24T19:15:17.770Z,9.98
2023-02-24T19:18:20.548Z,10.10
2023-02-24T19:21:28.883Z,10.13
2023-02-24T19:24:31.692Z,10.11
2023-02-24T19:27:35.802Z,10.16
2023-02-24T19:30:39.492Z,10.15
2023-02-24T19:33:42.373Z,10.11
2023-02-24T19:36:45.996Z,10.10
2023-02-24T19:39:48.721Z,10.25
2023-02-24T19:42:53.167Z,10.29
2023-02-24T19:45:56.222Z,10.37
2023-02-24T19:49:00.352Z,10.34
2023-02-24T19:52:06.345Z,10.26
2023-02-24T19:55:11.356Z,10.25
2023-02-24T19:58:14.082Z,10.29
2023-02-24T20:01:17.141Z,10.30
2023-02-24T20:04:21.031Z,10.30
2023-02-24T20:07:24.507Z,10.27
2023-02-24T20:10:27.461Z,10.23
2023-02-24T20:13:31.422Z,10.20
2023-02-24T20:16:36.797Z,10.21
2023-02-24T20:19:39.618Z,10.22
2023-02-24T20:22:42.886Z,10.16
2023-02-24T20:25:52.342Z,10.10
2023-02-24T20:28:56.175Z,10.11
2023-02-24T20:32:00.025Z,10.08
2023-02-24T20:35:02.986Z,10.13
2023-02-24T20:38:06.699Z,10.05
2023-02-24T20:41:10.049Z,10.09
2023-02-24T20:44:12.690Z,9.98
2023-02-24T20:47:17.069Z,9.87
2023-02-24T20:50:22.560Z,9.86
2023-02-24T20:53:25.329Z,9.91
2023-02-24T20:56:33.150Z,10.00
2023-02-24T20:59:40.130Z,10.05
2023-02-24T21:02:43.738Z,10.04
2023-02-24T21:05:46.447Z,10.04
2023-02-24T21:08:49.443Z,10.05
2023-02-24T21:11:52.306Z,10.02
2023-02-24T21:14:54.909Z,9.90
2023-02-24T21:17:57.922Z,9.76
2023-02-24T21:21:00.498Z,9.74
2023-02-24T21:24:03.081Z,9.75
2023-02-24T21:27:05.869Z,9.75
2023-02-24T21:30:09.558Z,9.73
2023-02-24T21:33:13.130Z,9.68
2023-02-24T21:36:16.684Z,9.61
2023-02-24T21:39:20.941Z,9.59
2023-02-24T21:42:23.508Z,9.49
2023-02-24T21:45:27.808Z,9.36
2023-02-24T21:48:30.285Z,9.45
2023-02-24T21:51:34.148Z,9.38
2023-02-24T21:54:37.347Z,9.32
2023-02-24T21:57:46.621Z,9.18
2023-02-24T22:00:49.419Z,9.19
2023-02-24T22:04:00.036Z,9.22
2023-02-24T22:07:02.667Z,9.10
2023-02-24T22:10:05.738Z,9.07
2023-02-24T22:13:08.661Z,9.04
2023-02-24T22:16:20.361Z,8.96
2023-02-24T22:19:22.969Z,9.02
2023-02-24T22:22:25.542Z,8.99
2023-02-24T22:25:27.997Z,8.90
2023-02-24T22:28:33.350Z,8.80
2023-02-24T22:31:39.691Z,8.74
2023-02-24T22:34:42.265Z,8.68
2023-02-24T22:37:44.811Z,8.65
2023-02-24T22:41:02.557Z,8.56
2023-02-24T22:44:06.399Z,8.53
2023-02-24T22:47:08.952Z,8.50
2023-02-24T22:50:11.758Z,8.40
2023-02-24T22:53:14.391Z,8.33
2023-02-24T22:56:21.252Z,8.31
2023-02-24T22:59:24.098Z,8.29
2023-02-24T23:02:27.440Z,8.31
2023-02-24T23:05:30.069Z,8.28
2023-02-24T23:08:35.148Z,8.26
2023-02-24T23:11:41.321Z,8.20
2023-02-24T23:14:44.519Z,8.14
2023-02-24T23:17:49.001Z,8.11
2023-02-24T23:21:16.075Z,8.09
2023-02-24T23:24:20.973Z,8.07
2023-02-24T23:27:23.533Z,8.05
2023-02-24T23:30:26.194Z,8.04
2023-02-24T23:33:29.236Z,7.96
2023-02-24T23:36:32.223Z,7.98
2023-02-24T23:39:34.874Z,7.94
2023-02-24T23:42:38.224Z,7.90
2023-02-24T23:45:42.055Z,7.86
2023-02-24T23:48:45.851Z,7.86
2023-02-24T23:51:49.187Z,7.80
2023-02-24T23:54:52.846Z,7.72
2023-02-24T23:57:55.964Z,7.73
